Seminole, Pennsylvania
Current Conditions -  °F | °C
As of 12:35 AM on Tuesday 27 Jan 2015 (Local Time) from KIDI Reporting Station
Haze Haze  
Wind Chill: 15°   Ceiling: 700
Heat Index: 21°   Visibility: 3mi
Dew Point: 19°   Wind: 5mph
Humidity: 93%   Direction: 310°NW
Pressure: 29.82"   Gusts: NA
Location:  40.95°N, 79.34°W
Report Text: KIDI 270535Z AUTO 31004KT 3SM BR BKN007 OVC027 M06/M07 A2982 RMK A01
Loading
Personal Weather Stations






























Interactive Weather Map New forecast layout! Learn more

10-Day Weather Forecast

Advertisements
Track Severe Weather on mobile